createdAt,value
2018-12-04T00:00:01.191Z,997.36
2018-12-04T00:01:06.728Z,997.37
2018-12-04T00:02:12.262Z,997.36
2018-12-04T00:03:17.797Z,997.33
2018-12-04T00:04:23.330Z,997.37
2018-12-04T00:05:28.863Z,997.42
2018-12-04T00:06:34.399Z,997.44
2018-12-04T00:07:39.935Z,997.51
2018-12-04T00:08:45.468Z,997.55
2018-12-04T00:09:51.004Z,997.48
2018-12-04T00:10:56.543Z,997.52
2018-12-04T00:12:02.071Z,997.61
2018-12-04T00:13:07.610Z,997.59
2018-12-04T00:14:13.139Z,997.68
2018-12-04T00:15:18.676Z,997.66
2018-12-04T00:16:24.218Z,997.69
2018-12-04T00:17:29.743Z,997.73
2018-12-04T00:18:35.281Z,997.77
2018-12-04T00:19:40.812Z,997.76
2018-12-04T00:20:46.356Z,997.79
2018-12-04T00:21:51.895Z,997.85
2018-12-04T00:22:57.424Z,997.83
2018-12-04T00:24:02.959Z,997.88
2018-12-04T00:25:08.498Z,997.94
2018-12-04T00:26:14.030Z,997.93
2018-12-04T00:27:19.564Z,997.94
2018-12-04T00:28:25.101Z,997.93
2018-12-04T00:29:30.628Z,997.91
2018-12-04T00:30:36.165Z,997.97
2018-12-04T00:31:41.704Z,997.99
2018-12-04T00:32:47.242Z,998.05
2018-12-04T00:33:52.774Z,998.05
2018-12-04T00:34:58.308Z,998.07
2018-12-04T00:36:03.837Z,998.09
2018-12-04T00:37:09.379Z,998.09
2018-12-04T00:38:14.916Z,998.13
2018-12-04T00:39:20.442Z,998.14
2018-12-04T00:40:25.984Z,998.14
2018-12-04T00:41:31.512Z,998.20
2018-12-04T00:42:37.052Z,998.22
2018-12-04T00:43:42.587Z,998.21
2018-12-04T00:44:48.120Z,998.24
2018-12-04T00:45:53.651Z,998.27
2018-12-04T00:46:59.186Z,998.30
2018-12-04T00:48:04.718Z,998.33
2018-12-04T00:49:10.258Z,998.33
2018-12-04T00:50:15.790Z,998.36
2018-12-04T00:51:21.327Z,998.41
2018-12-04T00:52:26.863Z,998.47
2018-12-04T00:53:32.396Z,998.51
2018-12-04T00:54:37.928Z,998.49
2018-12-04T00:55:43.468Z,998.55
2018-12-04T00:56:48.999Z,998.60
2018-12-04T00:57:54.528Z,998.61
2018-12-04T00:59:00.070Z,998.72
2018-12-04T01:00:05.608Z,998.71
2018-12-04T01:01:11.133Z,998.69
2018-12-04T01:02:16.675Z,998.76
2018-12-04T01:03:22.206Z,998.74
2018-12-04T01:04:27.748Z,998.73
2018-12-04T01:05:33.277Z,998.75
2018-12-04T01:06:38.808Z,998.72
2018-12-04T01:07:44.341Z,998.77
2018-12-04T01:08:50.524Z,998.79
2018-12-04T01:09:55.413Z,998.79
2018-12-04T01:11:00.950Z,998.79
2018-12-04T01:12:06.485Z,998.76
2018-12-04T01:13:12.012Z,998.86
2018-12-04T01:14:17.552Z,998.87
2018-12-04T01:15:23.084Z,998.89
2018-12-04T01:16:28.623Z,998.97
2018-12-04T01:17:34.153Z,999.02
2018-12-04T01:18:39.687Z,999.03
2018-12-04T01:19:45.225Z,999.05
2018-12-04T01:20:50.761Z,999.11
2018-12-04T01:21:56.292Z,999.14
2018-12-04T01:23:01.832Z,999.14
2018-12-04T01:24:07.368Z,999.17
2018-12-04T01:25:12.896Z,999.13
2018-12-04T01:26:18.437Z,999.12
2018-12-04T01:27:23.961Z,999.15
2018-12-04T01:28:29.498Z,999.18
2018-12-04T01:29:35.036Z,999.19
2018-12-04T01:30:40.571Z,999.20
2018-12-04T01:31:46.103Z,999.22
2018-12-04T01:32:51.631Z,999.27
2018-12-04T01:33:57.170Z,999.31
2018-12-04T01:35:02.700Z,999.32
2018-12-04T01:36:08.241Z,999.30
2018-12-04T01:37:13.769Z,999.31
2018-12-04T01:38:19.307Z,999.34
2018-12-04T01:39:24.838Z,999.42
2018-12-04T01:40:30.379Z,999.44
2018-12-04T01:41:35.906Z,999.49
2018-12-04T01:42:41.448Z,999.56
2018-12-04T01:43:46.975Z,999.59
2018-12-04T01:44:52.513Z,999.60
2018-12-04T01:45:58.050Z,999.54
2018-12-04T01:47:03.575Z,999.65
2018-12-04T01:48:09.118Z,999.66
2018-12-04T01:49:14.644Z,999.71
2018-12-04T01:50:20.187Z,999.74
2018-12-04T01:51:25.716Z,999.78
2018-12-04T01:52:31.248Z,999.82
2018-12-04T01:53:36.786Z,999.78
2018-12-04T01:54:42.320Z,999.86
2018-12-04T01:55:47.859Z,999.85
2018-12-04T01:56:53.397Z,999.87
2018-12-04T01:57:58.925Z,999.92
2018-12-04T01:59:04.457Z,999.95
2018-12-04T02:00:09.992Z,999.99
2018-12-04T02:01:15.530Z,999.98
2018-12-04T02:02:21.057Z,1000.04
2018-12-04T02:03:26.591Z,1000.07
2018-12-04T02:04:32.126Z,1000.07
2018-12-04T02:05:37.659Z,1000.10
2018-12-04T02:06:43.199Z,1000.10
2018-12-04T02:07:48.731Z,1000.16
2018-12-04T02:08:54.259Z,1000.14
2018-12-04T02:09:59.796Z,1000.16
2018-12-04T02:11:05.333Z,1000.14
2018-12-04T02:12:10.868Z,1000.24
2018-12-04T02:13:16.400Z,1000.22
2018-12-04T02:14:21.930Z,1000.27
2018-12-04T02:15:27.464Z,1000.27
2018-12-04T02:16:33.003Z,1000.33
2018-12-04T02:17:38.534Z,1000.37
2018-12-04T02:18:44.070Z,1000.39
2018-12-04T02:19:49.606Z,1000.40
2018-12-04T02:20:55.140Z,1000.41
2018-12-04T02:22:00.670Z,1000.47
2018-12-04T02:23:06.210Z,1000.53
2018-12-04T02:24:11.741Z,1000.51
2018-12-04T02:25:17.273Z,1000.53
2018-12-04T02:26:22.809Z,1000.57
2018-12-04T02:27:28.343Z,1000.58
2018-12-04T02:28:33.872Z,1000.55
2018-12-04T02:29:39.409Z,1000.59
2018-12-04T02:30:44.949Z,1000.61
2018-12-04T02:31:50.481Z,1000.69
2018-12-04T02:32:56.011Z,1000.70
2018-12-04T02:34:01.549Z,1000.68
2018-12-04T02:35:07.082Z,1000.77
2018-12-04T02:36:12.624Z,1000.82
2018-12-04T02:37:18.154Z,1000.86
2018-12-04T02:38:23.678Z,1000.84
2018-12-04T02:39:29.221Z,1000.93
2018-12-04T02:40:34.752Z,1000.97
2018-12-04T02:41:40.281Z,1000.99
2018-12-04T02:42:45.833Z,1001.05
2018-12-04T02:43:51.351Z,1001.08
2018-12-04T02:44:56.884Z,1001.08
2018-12-04T02:46:02.418Z,1001.11
2018-12-04T02:47:07.959Z,1001.15
2018-12-04T02:48:13.493Z,1001.21
2018-12-04T02:49:19.025Z,1001.22
2018-12-04T02:50:24.555Z,1001.22
2018-12-04T02:51:30.090Z,1001.28
2018-12-04T02:52:35.635Z,1001.29
2018-12-04T02:53:41.154Z,1001.37
2018-12-04T02:54:46.691Z,1001.37
2018-12-04T02:55:52.234Z,1001.33
2018-12-04T02:56:57.766Z,1001.37
2018-12-04T02:58:03.297Z,1001.43
2018-12-04T02:59:08.829Z,1001.41
2018-12-04T03:00:14.370Z,1001.43
2018-12-04T03:01:19.893Z,1001.48
2018-12-04T03:02:25.447Z,1001.48
2018-12-04T03:03:30.968Z,1001.52
2018-12-04T03:04:36.502Z,1001.51
2018-12-04T03:05:42.031Z,1001.51
2018-12-04T03:06:47.567Z,1001.53
2018-12-04T03:07:53.105Z,1001.54
2018-12-04T03:08:58.646Z,1001.57
2018-12-04T03:10:04.170Z,1001.62
2018-12-04T03:11:09.697Z,1001.60
2018-12-04T03:12:15.254Z,1001.65
2018-12-04T03:13:20.778Z,1001.60
2018-12-04T03:14:26.306Z,1001.64
2018-12-04T03:15:31.835Z,1001.69
2018-12-04T03:16:37.375Z,1001.68
2018-12-04T03:17:42.909Z,1001.71
2018-12-04T03:18:48.437Z,1001.71
2018-12-04T03:19:53.970Z,1001.77
2018-12-04T03:20:59.508Z,1001.86
2018-12-04T03:22:05.039Z,1001.86
2018-12-04T03:23:10.577Z,1001.94
2018-12-04T03:24:16.106Z,1001.93
2018-12-04T03:25:21.640Z,1001.98
2018-12-04T03:26:27.175Z,1002.04
2018-12-04T03:27:32.707Z,1002.01
2018-12-04T03:28:38.246Z,1002.04
2018-12-04T03:29:43.774Z,1002.06
2018-12-04T03:30:49.317Z,1002.11
2018-12-04T03:31:54.845Z,1002.13
2018-12-04T03:33:00.376Z,1002.16
2018-12-04T03:34:05.914Z,1002.20
2018-12-04T03:35:11.443Z,1002.22
2018-12-04T03:36:16.975Z,1002.22
2018-12-04T03:37:22.521Z,1002.26
2018-12-04T03:38:28.046Z,1002.36
2018-12-04T03:39:33.578Z,1002.35
2018-12-04T03:40:39.114Z,1002.35
2018-12-04T03:41:44.643Z,1002.34
2018-12-04T03:42:50.185Z,1002.41
2018-12-04T03:43:55.715Z,1002.46
2018-12-04T03:45:01.252Z,1002.48
2018-12-04T03:46:06.786Z,1002.52
2018-12-04T03:47:12.312Z,1002.55
2018-12-04T03:48:17.845Z,1002.61
2018-12-04T03:49:23.380Z,1002.64
2018-12-04T03:50:28.921Z,1002.67
2018-12-04T03:51:34.450Z,1002.70
2018-12-04T03:52:39.987Z,1002.71
2018-12-04T03:53:45.516Z,1002.72
2018-12-04T03:54:51.045Z,1002.74
2018-12-04T03:55:56.585Z,1002.76
2018-12-04T03:57:02.114Z,1002.79
2018-12-04T03:58:07.646Z,1002.83
2018-12-04T03:59:13.179Z,1002.82
2018-12-04T04:00:18.713Z,1002.85
2018-12-04T04:01:24.249Z,1002.85
2018-12-04T04:02:29.785Z,1002.91
2018-12-04T04:03:35.316Z,1002.97
2018-12-04T04:04:40.851Z,1002.98
2018-12-04T04:05:46.383Z,1003.00
2018-12-04T04:06:51.914Z,1003.03
2018-12-04T04:07:57.448Z,1003.10
2018-12-04T04:09:02.983Z,1003.08
2018-12-04T04:10:08.519Z,1003.15
2018-12-04T04:11:14.054Z,1003.16
2018-12-04T04:12:19.592Z,1003.11
2018-12-04T04:13:25.114Z,1003.22
2018-12-04T04:14:30.658Z,1003.28
2018-12-04T04:15:36.183Z,1003.23
2018-12-04T04:16:41.722Z,1003.28
2018-12-04T04:17:47.303Z,1003.28
2018-12-04T04:18:52.782Z,1003.33
2018-12-04T04:19:58.324Z,1003.32
2018-12-04T04:21:03.855Z,1003.29
2018-12-04T04:22:09.388Z,1003.36
2018-12-04T04:23:14.917Z,1003.36
2018-12-04T04:24:20.454Z,1003.43
2018-12-04T04:25:25.987Z,1003.47
2018-12-04T04:26:31.519Z,1003.48
2018-12-04T04:27:37.070Z,1003.51
2018-12-04T04:28:42.586Z,1003.58
2018-12-04T04:29:48.120Z,1003.55
2018-12-04T04:30:53.666Z,1003.52
2018-12-04T04:31:59.184Z,1003.55
2018-12-04T04:33:04.728Z,1003.57
2018-12-04T04:34:10.254Z,1003.57
2018-12-04T04:35:15.789Z,1003.58
2018-12-04T04:36:21.329Z,1003.62
2018-12-04T04:37:26.853Z,1003.66
2018-12-04T04:38:32.383Z,1003.67
2018-12-04T04:39:37.920Z,1003.70
2018-12-04T04:40:43.457Z,1003.71
2018-12-04T04:41:48.991Z,1003.64
2018-12-04T04:42:54.529Z,1003.68
2018-12-04T04:44:00.057Z,1003.71
2018-12-04T04:45:05.592Z,1003.80
2018-12-04T04:46:11.119Z,1003.74
2018-12-04T04:47:16.654Z,1003.76
2018-12-04T04:48:22.192Z,1003.80
2018-12-04T04:49:27.719Z,1003.88
2018-12-04T04:50:33.251Z,1003.83
2018-12-04T04:51:38.791Z,1003.89
2018-12-04T04:52:44.320Z,1003.91
2018-12-04T04:53:49.851Z,1003.94
2018-12-04T04:54:55.387Z,1004.02
2018-12-04T04:56:00.923Z,1004.01
2018-12-04T04:57:06.457Z,1003.92
2018-12-04T04:58:11.989Z,1003.98
2018-12-04T04:59:17.525Z,1004.02
2018-12-04T05:00:23.054Z,1004.06
2018-12-04T05:01:28.584Z,1004.10
2018-12-04T05:02:34.122Z,1004.17
2018-12-04T05:03:39.650Z,1004.16
2018-12-04T05:04:45.194Z,1004.26
2018-12-04T05:05:50.728Z,1004.28
2018-12-04T05:06:56.265Z,1004.26
2018-12-04T05:08:01.789Z,1004.27
2018-12-04T05:09:07.327Z,1004.31
2018-12-04T05:10:12.856Z,1004.32
2018-12-04T05:11:18.386Z,1004.31
2018-12-04T05:12:23.922Z,1004.33
2018-12-04T05:13:29.453Z,1004.37
2018-12-04T05:14:34.985Z,1004.37
2018-12-04T05:15:40.524Z,1004.38
2018-12-04T05:16:46.050Z,1004.42
2018-12-04T05:17:51.599Z,1004.47
2018-12-04T05:18:57.129Z,1004.53
2018-12-04T05:20:02.660Z,1004.59
2018-12-04T05:21:08.952Z,1004.59
2018-12-04T05:22:13.719Z,1004.57
2018-12-04T05:23:19.256Z,1004.58
2018-12-04T05:24:24.784Z,1004.61
2018-12-04T05:25:30.317Z,1004.62
2018-12-04T05:26:35.857Z,1004.65
2018-12-04T05:27:41.388Z,1004.70
2018-12-04T05:28:46.919Z,1004.74
2018-12-04T05:29:52.450Z,1004.76
2018-12-04T05:30:57.991Z,1004.70
2018-12-04T05:32:03.522Z,1004.75
2018-12-04T05:33:09.048Z,1004.70
2018-12-04T05:34:14.583Z,1004.75
2018-12-04T05:35:20.116Z,1004.77
2018-12-04T05:36:25.652Z,1004.79
2018-12-04T05:37:31.199Z,1004.83
2018-12-04T05:38:36.716Z,1004.89
2018-12-04T05:39:42.254Z,1004.89
2018-12-04T05:40:47.790Z,1004.94
2018-12-04T05:41:53.314Z,1004.97
2018-12-04T05:42:58.850Z,1005.02
2018-12-04T05:44:04.382Z,1005.00
2018-12-04T05:45:09.916Z,1005.01
2018-12-04T05:46:15.455Z,1005.08
2018-12-04T05:47:20.985Z,1005.09
2018-12-04T05:48:26.516Z,1005.10
2018-12-04T05:49:32.048Z,1005.09
2018-12-04T05:50:37.579Z,1005.17
2018-12-04T05:51:43.120Z,1005.16
2018-12-04T05:52:48.650Z,1005.17
2018-12-04T05:53:54.182Z,1005.19
2018-12-04T05:54:59.715Z,1005.21
2018-12-04T05:56:05.257Z,1005.24
2018-12-04T05:57:10.786Z,1005.21
2018-12-04T05:58:16.315Z,1005.20
2018-12-04T05:59:21.844Z,1005.22
2018-12-04T06:00:27.431Z,1005.26
2018-12-04T06:01:32.914Z,1005.30
2018-12-04T06:02:38.465Z,1005.34
2018-12-04T06:03:43.982Z,1005.30
2018-12-04T06:04:49.516Z,1005.33
2018-12-04T06:05:55.051Z,1005.39
2018-12-04T06:07:00.576Z,1005.40
2018-12-04T06:08:06.115Z,1005.44
2018-12-04T06:09:12.153Z,1005.48
2018-12-04T06:10:17.183Z,1005.48
2018-12-04T06:11:22.714Z,1005.51
2018-12-04T06:12:28.245Z,1005.53
2018-12-04T06:13:33.779Z,1005.57
2018-12-04T06:14:39.310Z,1005.61
2018-12-04T06:15:44.935Z,1005.63
2018-12-04T06:16:50.377Z,1005.67
2018-12-04T06:17:55.910Z,1005.73
2018-12-04T06:19:01.447Z,1005.75
2018-12-04T06:20:06.972Z,1005.76
2018-12-04T06:21:12.503Z,1005.80
2018-12-04T06:22:18.039Z,1005.82
2018-12-04T06:23:23.574Z,1005.81
2018-12-04T06:24:29.106Z,1005.82
2018-12-04T06:25:34.649Z,1005.85
2018-12-04T06:26:40.170Z,1005.81
2018-12-04T06:27:45.741Z,1005.87
2018-12-04T06:28:51.366Z,1005.94
2018-12-04T06:29:56.769Z,1005.96
2018-12-04T06:31:02.297Z,1005.97
2018-12-04T06:32:07.841Z,1006.02
2018-12-04T06:33:13.370Z,1006.01
2018-12-04T06:34:18.896Z,1006.07
2018-12-04T06:35:24.435Z,1006.10
2018-12-04T06:36:29.966Z,1006.15
2018-12-04T06:37:35.499Z,1006.16
2018-12-04T06:38:41.031Z,1006.16
2018-12-04T06:39:46.562Z,1006.16
2018-12-04T06:40:52.146Z,1006.14
2018-12-04T06:41:57.631Z,1006.18
2018-12-04T06:43:03.166Z,1006.18
2018-12-04T06:44:08.693Z,1006.24
2018-12-04T06:45:14.225Z,1006.27
2018-12-04T06:46:19.759Z,1006.30
2018-12-04T06:47:25.297Z,1006.32
2018-12-04T06:48:30.824Z,1006.41
2018-12-04T06:49:36.360Z,1006.45
2018-12-04T06:50:41.891Z,1006.52
2018-12-04T06:51:47.421Z,1006.54
2018-12-04T06:52:52.956Z,1006.56
2018-12-04T06:53:58.487Z,1006.59
2018-12-04T06:55:04.017Z,1006.62
2018-12-04T06:56:09.556Z,1006.64
2018-12-04T06:57:15.089Z,1006.71
2018-12-04T06:58:20.615Z,1006.75
2018-12-04T06:59:26.156Z,1006.78
2018-12-04T07:00:31.688Z,1006.80
2018-12-04T07:01:37.219Z,1006.85
2018-12-04T07:02:42.749Z,1006.90
2018-12-04T07:03:48.279Z,1006.94
2018-12-04T07:04:53.812Z,1006.95
2018-12-04T07:05:59.350Z,1007.01
2018-12-04T07:07:04.907Z,1007.06
2018-12-04T07:08:10.413Z,1007.10
2018-12-04T07:09:15.944Z,1007.10
2018-12-04T07:10:21.475Z,1007.15
2018-12-04T07:11:27.009Z,1007.19
2018-12-04T07:12:32.568Z,1007.19
2018-12-04T07:13:38.081Z,1007.19
2018-12-04T07:14:43.607Z,1007.25
2018-12-04T07:15:49.140Z,1007.30
2018-12-04T07:16:54.671Z,1007.27
2018-12-04T07:18:00.206Z,1007.32
2018-12-04T07:19:05.744Z,1007.40
2018-12-04T07:20:11.270Z,1007.34
2018-12-04T07:21:16.803Z,1007.42
2018-12-04T07:22:22.344Z,1007.42
2018-12-04T07:23:27.866Z,1007.50
2018-12-04T07:24:33.401Z,1007.52
2018-12-04T07:25:38.935Z,1007.54
2018-12-04T07:26:44.472Z,1007.61
2018-12-04T07:27:49.998Z,1007.65
2018-12-04T07:28:55.535Z,1007.64
2018-12-04T07:30:01.061Z,1007.70
2018-12-04T07:31:06.598Z,1007.70
2018-12-04T07:32:12.127Z,1007.77
2018-12-04T07:33:17.661Z,1007.76
2018-12-04T07:34:23.203Z,1007.84
2018-12-04T07:35:28.730Z,1007.88
2018-12-04T07:36:34.258Z,1007.92
2018-12-04T07:37:39.789Z,1007.87
2018-12-04T07:38:45.326Z,1007.90
2018-12-04T07:39:50.889Z,1007.88
2018-12-04T07:40:56.396Z,1007.94
2018-12-04T07:42:01.924Z,1007.94
2018-12-04T07:43:07.452Z,1007.91
2018-12-04T07:44:12.984Z,1007.97
2018-12-04T07:45:18.523Z,1007.97
2018-12-04T07:46:24.049Z,1008.01
2018-12-04T07:47:29.582Z,1008.03
2018-12-04T07:48:35.118Z,1008.02
2018-12-04T07:49:40.648Z,1008.11
2018-12-04T07:50:46.184Z,1008.09
2018-12-04T07:51:51.712Z,1008.11
2018-12-04T07:52:57.252Z,1008.12
2018-12-04T07:54:02.781Z,1008.17
2018-12-04T07:55:08.321Z,1008.19
2018-12-04T07:56:13.842Z,1008.23
2018-12-04T07:57:19.382Z,1008.22
2018-12-04T07:58:24.913Z,1008.25
2018-12-04T07:59:30.445Z,1008.26
2018-12-04T08:00:35.974Z,1008.33
2018-12-04T08:01:41.505Z,1008.33
2018-12-04T08:02:47.046Z,1008.33
2018-12-04T08:03:52.572Z,1008.40
2018-12-04T08:04:58.106Z,1008.37
2018-12-04T08:06:03.639Z,1008.40
2018-12-04T08:07:09.169Z,1008.39
2018-12-04T08:08:14.708Z,1008.35
2018-12-04T08:09:20.238Z,1008.41
2018-12-04T08:10:25.770Z,1008.45
2018-12-04T08:11:31.301Z,1008.50
2018-12-04T08:12:36.839Z,1008.56
2018-12-04T08:13:42.365Z,1008.57
2018-12-04T08:14:47.900Z,1008.63
2018-12-04T08:15:53.430Z,1008.68
2018-12-04T08:16:58.968Z,1008.66
2018-12-04T08:18:04.498Z,1008.71
2018-12-04T08:19:10.032Z,1008.74
2018-12-04T08:20:15.564Z,1008.72
2018-12-04T08:21:21.092Z,1008.74
2018-12-04T08:22:26.628Z,1008.80
2018-12-04T08:23:32.161Z,1008.83
2018-12-04T08:24:37.695Z,1008.81
2018-12-04T08:25:43.227Z,1008.86
2018-12-04T08:26:48.758Z,1008.86
2018-12-04T08:27:54.296Z,1008.86
2018-12-04T08:28:59.831Z,1008.92
2018-12-04T08:30:05.360Z,1008.94
2018-12-04T08:31:10.898Z,1008.98
2018-12-04T08:32:16.427Z,1008.94
2018-12-04T08:33:21.958Z,1009.03
2018-12-04T08:34:27.491Z,1009.01
2018-12-04T08:35:33.031Z,1009.05
2018-12-04T08:36:38.558Z,1009.01
2018-12-04T08:37:44.094Z,1009.10
2018-12-04T08:38:49.620Z,1009.10
2018-12-04T08:39:55.153Z,1009.14
2018-12-04T08:41:00.687Z,1009.18
2018-12-04T08:43:37.825Z,1009.22
2018-12-04T08:44:43.331Z,1009.23
2018-12-04T08:46:41.737Z,1009.34
2018-12-04T08:47:47.269Z,1009.32
2018-12-04T08:49:45.682Z,1009.32
2018-12-04T08:50:51.202Z,1009.34
2018-12-04T08:52:49.649Z,1009.34
2018-12-04T08:53:55.139Z,1009.40
2018-12-04T08:55:53.577Z,1009.42
2018-12-04T08:56:59.078Z,1009.52
2018-12-04T08:58:04.621Z,1009.51
2018-12-04T08:59:10.141Z,1009.51
2018-12-04T09:00:15.671Z,1009.50
2018-12-04T09:01:21.209Z,1009.57
2018-12-04T09:02:26.737Z,1009.62
2018-12-04T09:03:32.267Z,1009.66
2018-12-04T09:04:37.803Z,1009.65
2018-12-04T09:05:43.331Z,1009.73
2018-12-04T09:06:48.949Z,1009.73
2018-12-04T09:07:54.397Z,1009.76
2018-12-04T09:08:59.930Z,1009.76
2018-12-04T09:10:05.459Z,1009.80
2018-12-04T09:11:11.000Z,1009.80
2018-12-04T09:12:16.538Z,1009.84
2018-12-04T09:13:22.058Z,1009.83
2018-12-04T09:14:27.592Z,1009.85
2018-12-04T09:15:33.128Z,1009.87
2018-12-04T09:16:38.664Z,1009.93
2018-12-04T09:17:44.193Z,1009.91
2018-12-04T09:18:49.732Z,1009.93
2018-12-04T09:19:55.319Z,1009.95
2018-12-04T09:21:00.793Z,1010.02
2018-12-04T09:22:06.349Z,1009.99
2018-12-04T09:23:11.914Z,1010.02
2018-12-04T09:24:17.393Z,1010.04
2018-12-04T09:25:22.982Z,1010.12
2018-12-04T09:26:28.507Z,1010.11
2018-12-04T09:27:34.008Z,1010.14
2018-12-04T09:28:39.525Z,1010.12
2018-12-04T09:29:45.079Z,1010.16
2018-12-04T09:30:50.605Z,1010.22
2018-12-04T09:31:56.135Z,1010.25
2018-12-04T09:33:01.666Z,1010.23
2018-12-04T09:34:07.193Z,1010.30
2018-12-04T09:35:12.727Z,1010.30
2018-12-04T09:36:18.273Z,1010.36
2018-12-04T09:37:23.796Z,1010.38
2018-12-04T09:38:29.331Z,1010.37
2018-12-04T09:39:34.862Z,1010.38
2018-12-04T09:40:40.392Z,1010.46
2018-12-04T09:41:45.933Z,1010.47
2018-12-04T09:42:51.458Z,1010.51
2018-12-04T09:43:56.999Z,1010.52
2018-12-04T09:45:02.530Z,1010.53
2018-12-04T09:46:08.061Z,1010.59
2018-12-04T09:47:13.594Z,1010.59
2018-12-04T09:48:19.129Z,1010.61
2018-12-04T09:49:24.661Z,1010.67
2018-12-04T09:50:30.200Z,1010.70
2018-12-04T09:51:35.740Z,1010.70
2018-12-04T09:52:41.263Z,1010.68
2018-12-04T09:53:51.919Z,1010.70
2018-12-04T09:54:52.334Z,1010.77
2018-12-04T09:55:57.865Z,1010.73
2018-12-04T09:57:03.401Z,1010.80
2018-12-04T09:58:08.937Z,1010.83
2018-12-04T09:59:14.503Z,1010.87
2018-12-04T10:00:19.998Z,1010.85
2018-12-04T10:01:25.531Z,1010.91
2018-12-04T10:02:31.067Z,1010.95
2018-12-04T10:03:36.598Z,1011.03
2018-12-04T10:04:42.139Z,1011.03
2018-12-04T10:05:47.668Z,1011.09
2018-12-04T10:06:53.200Z,1011.12
2018-12-04T10:07:58.733Z,1011.14
2018-12-04T10:09:04.270Z,1011.11
2018-12-04T10:10:09.800Z,1011.21
2018-12-04T10:11:15.335Z,1011.14
2018-12-04T10:12:20.871Z,1011.14
2018-12-04T10:13:26.401Z,1011.19
2018-12-04T10:14:31.936Z,1011.18
2018-12-04T10:15:37.473Z,1011.20
2018-12-04T10:16:43.008Z,1011.15
2018-12-04T10:17:48.541Z,1011.12
2018-12-04T10:18:54.067Z,1011.20
2018-12-04T10:19:59.607Z,1011.20
2018-12-04T10:21:05.135Z,1011.17
2018-12-04T10:22:10.669Z,1011.25
2018-12-04T10:23:16.202Z,1011.23
2018-12-04T10:24:21.738Z,1011.32
2018-12-04T10:25:27.271Z,1011.20
2018-12-04T10:26:32.803Z,1011.24
2018-12-04T10:27:38.347Z,1011.31
2018-12-04T10:28:43.869Z,1011.32
2018-12-04T10:29:49.404Z,1011.35
2018-12-04T10:30:54.945Z,1011.39
2018-12-04T10:32:00.476Z,1011.43
2018-12-04T10:33:06.004Z,1011.49
2018-12-04T10:34:11.539Z,1011.47
2018-12-04T10:35:17.070Z,1011.54
2018-12-04T10:36:22.606Z,1011.38
2018-12-04T10:37:28.141Z,1011.45
2018-12-04T10:38:33.674Z,1011.44
2018-12-04T10:39:40.060Z,1011.52
2018-12-04T10:40:44.741Z,1011.47
2018-12-04T10:41:50.278Z,1011.51
2018-12-04T10:42:55.811Z,1011.51
2018-12-04T10:44:01.349Z,1011.50
2018-12-04T10:45:06.874Z,1011.53
2018-12-04T10:46:12.411Z,1011.51
2018-12-04T10:47:17.947Z,1011.59
2018-12-04T10:48:23.481Z,1011.62
2018-12-04T10:49:29.011Z,1011.59
2018-12-04T10:50:34.546Z,1011.68
2018-12-04T10:51:40.076Z,1011.66
2018-12-04T10:52:45.611Z,1011.67
2018-12-04T10:53:51.143Z,1011.71
2018-12-04T10:54:56.675Z,1011.64
2018-12-04T10:56:02.209Z,1011.69
2018-12-04T10:57:09.938Z,1011.72
2018-12-04T10:58:13.287Z,1011.70
2018-12-04T10:59:18.821Z,1011.78
2018-12-04T11:00:24.349Z,1011.72
2018-12-04T11:01:29.877Z,1011.81
2018-12-04T11:02:35.412Z,1011.78
2018-12-04T11:03:40.952Z,1011.76
2018-12-04T11:04:46.478Z,1011.78
2018-12-04T11:05:52.019Z,1011.74
2018-12-04T11:06:57.570Z,1011.74
2018-12-04T11:08:03.083Z,1011.78
2018-12-04T11:09:08.619Z,1011.82
2018-12-04T11:10:14.149Z,1011.82
2018-12-04T11:11:19.687Z,1011.85
2018-12-04T11:12:25.217Z,1011.78
2018-12-04T11:13:30.749Z,1011.80
2018-12-04T11:14:36.282Z,1011.83
2018-12-04T11:15:41.818Z,1011.94
2018-12-04T11:16:47.357Z,1011.99
2018-12-04T11:17:52.885Z,1012.00
2018-12-04T11:18:58.429Z,1012.07
2018-12-04T11:20:03.957Z,1012.06
2018-12-04T11:21:09.491Z,1012.09
2018-12-04T11:22:15.020Z,1012.07
2018-12-04T11:23:20.558Z,1012.15
2018-12-04T11:24:26.092Z,1012.25
2018-12-04T11:25:31.629Z,1012.21
2018-12-04T11:26:37.159Z,1012.27
2018-12-04T11:27:42.695Z,1012.29
2018-12-04T11:28:48.227Z,1012.31
2018-12-04T11:29:53.761Z,1012.32
2018-12-04T11:30:59.297Z,1012.28
2018-12-04T11:32:04.834Z,1012.35
2018-12-04T11:33:10.370Z,1012.38
2018-12-04T11:34:15.902Z,1012.36
2018-12-04T11:35:21.430Z,1012.41
2018-12-04T11:36:26.975Z,1012.44
2018-12-04T11:37:32.502Z,1012.40
2018-12-04T11:38:38.035Z,1012.39
2018-12-04T11:39:43.572Z,1012.43
2018-12-04T11:40:49.105Z,1012.44
2018-12-04T11:41:54.634Z,1012.48
2018-12-04T11:43:00.170Z,1012.45
2018-12-04T11:44:05.702Z,1012.40
2018-12-04T11:45:11.243Z,1012.55
2018-12-04T11:46:16.770Z,1012.52
2018-12-04T11:47:22.306Z,1012.60
2018-12-04T11:48:27.840Z,1012.60
2018-12-04T11:49:33.379Z,1012.55
2018-12-04T11:50:38.907Z,1012.62
2018-12-04T11:51:44.462Z,1012.66
2018-12-04T11:52:49.980Z,1012.67
2018-12-04T11:53:55.517Z,1012.62
2018-12-04T11:55:01.047Z,1012.74
2018-12-04T11:56:06.580Z,1012.79
2018-12-04T11:57:12.108Z,1012.79
2018-12-04T11:58:17.646Z,1012.87
2018-12-04T11:59:23.183Z,1012.87
2018-12-04T12:00:28.718Z,1012.85
2018-12-04T12:01:34.251Z,1012.84
2018-12-04T12:02:39.786Z,1012.92
2018-12-04T12:03:45.317Z,1012.89
2018-12-04T12:04:50.851Z,1012.86
2018-12-04T12:05:56.383Z,1012.92
2018-12-04T12:07:01.932Z,1012.94
2018-12-04T12:08:07.450Z,1012.85
2018-12-04T12:09:12.982Z,1012.91
2018-12-04T12:10:18.517Z,1012.93
2018-12-04T12:11:24.061Z,1012.94
2018-12-04T12:12:29.587Z,1012.90
2018-12-04T12:13:35.124Z,1012.92
2018-12-04T12:14:40.660Z,1012.94
2018-12-04T12:15:46.186Z,1012.96
2018-12-04T12:16:51.725Z,1012.99
2018-12-04T12:17:57.261Z,1013.02
2018-12-04T12:19:02.792Z,1013.01
2018-12-04T12:20:08.324Z,1013.04
2018-12-04T12:21:13.858Z,1013.07
2018-12-04T12:22:19.396Z,1013.13
2018-12-04T12:23:24.923Z,1013.14
2018-12-04T12:24:30.459Z,1013.17
2018-12-04T12:25:35.992Z,1013.21
2018-12-04T12:26:41.534Z,1013.17
2018-12-04T12:27:47.059Z,1013.20
2018-12-04T12:28:52.595Z,1013.21
2018-12-04T12:29:58.131Z,1013.27
2018-12-04T12:31:03.668Z,1013.31
2018-12-04T12:32:09.195Z,1013.23
2018-12-04T12:33:14.737Z,1013.22
2018-12-04T12:34:23.468Z,1013.32
2018-12-04T12:35:25.804Z,1013.35
2018-12-04T12:36:31.330Z,1013.39
2018-12-04T12:37:36.871Z,1013.36
2018-12-04T12:38:42.406Z,1013.46
2018-12-04T12:39:47.934Z,1013.46
2018-12-04T12:40:53.466Z,1013.45
2018-12-04T12:41:59.001Z,1013.56
2018-12-04T12:43:04.538Z,1013.52
2018-12-04T12:44:10.073Z,1013.53
2018-12-04T12:45:15.606Z,1013.51
2018-12-04T12:46:21.134Z,1013.55
2018-12-04T12:47:26.669Z,1013.52
2018-12-04T12:48:32.205Z,1013.53
2018-12-04T12:49:37.745Z,1013.54
2018-12-04T12:50:43.272Z,1013.60
2018-12-04T12:51:48.809Z,1013.58
2018-12-04T12:52:54.348Z,1013.57
2018-12-04T12:53:59.875Z,1013.59
2018-12-04T12:55:05.412Z,1013.67
2018-12-04T12:56:10.944Z,1013.64
2018-12-04T12:57:16.486Z,1013.72
2018-12-04T12:58:22.009Z,1013.71
2018-12-04T12:59:27.551Z,1013.73
2018-12-04T13:00:33.080Z,1013.70
2018-12-04T13:01:38.613Z,1013.68
2018-12-04T13:02:44.146Z,1013.79
2018-12-04T13:03:49.678Z,1013.83
2018-12-04T13:04:55.215Z,1013.83
2018-12-04T13:06:00.744Z,1013.85
2018-12-04T13:07:06.278Z,1013.86
2018-12-04T13:08:11.808Z,1013.93
2018-12-04T13:09:17.347Z,1013.95
2018-12-04T13:10:22.885Z,1013.96
2018-12-04T13:11:28.417Z,1013.98
2018-12-04T13:12:33.948Z,1013.98
2018-12-04T13:13:39.480Z,1013.98
2018-12-04T13:16:16.598Z,1014.07
2018-12-04T13:17:22.124Z,1014.02
2018-12-04T13:19:20.530Z,1014.10
2018-12-04T13:20:26.062Z,1014.12
2018-12-04T13:22:24.506Z,1014.15
2018-12-04T13:23:30.014Z,1014.15
2018-12-04T13:24:35.542Z,1014.14